Time;durP1;ratioP1;P1;durP2;ratioP2;P2;SDS_P1;SDS_P2;PMS_P1;PMS_P2;Temp;Humidity;BMP_temperature;BMP_pressure;BME280_temperature;BME280_humidity;BME280_pressure;Samples;Min_cycle;Max_cycle;Signal;HPM_P1;HPM_P2
2024/02/18 00:00:16;;;;;;;10.82;2.50;;;10.70;99.90;;;;;;4946173;28;20028;-90
2024/02/18 00:02:42;;;;;;;7.43;2.38;;;10.70;99.90;;;;;;4957773;28;20027;-90
2024/02/18 00:05:08;;;;;;;7.72;2.10;;;10.70;99.90;;;;;;4956512;28;20019;-89
2024/02/18 00:07:34;;;;;;;8.77;2.47;;;10.70;99.90;;;;;;4958505;28;20500;-90
2024/02/18 00:10:00;;;;;;;9.38;2.05;;;10.70;99.90;;;;;;4958004;28;20027;-89
2024/02/18 00:12:26;;;;;;;8.02;2.22;;;10.60;99.90;;;;;;4957165;28;20034;-90
2024/02/18 00:14:52;;;;;;;9.40;2.55;;;10.60;99.90;;;;;;4955382;29;20114;-89
2024/02/18 00:17:18;;;;;;;11.75;2.40;;;10.60;99.90;;;;;;4960711;28;20034;-89
2024/02/18 00:19:43;;;;;;;8.73;1.83;;;10.60;99.90;;;;;;4956783;28;20031;-90
2024/02/18 00:22:09;;;;;;;9.25;1.98;;;10.60;99.90;;;;;;4955819;28;20041;-90
2024/02/18 00:24:34;;;;;;;9.88;2.63;;;10.60;99.90;;;;;;4958937;28;20499;-89
2024/02/18 00:27:00;;;;;;;9.32;1.77;;;10.60;99.90;;;;;;4957582;28;20074;-89
2024/02/18 00:29:26;;;;;;;8.88;2.45;;;10.60;99.90;;;;;;4955022;28;20551;-90
2024/02/18 00:31:51;;;;;;;8.75;2.53;;;10.60;99.90;;;;;;4940642;28;20035;-89
2024/02/18 00:34:20;;;;;;;8.85;2.20;;;10.50;99.90;;;;;;4959004;28;20031;-90
2024/02/18 00:36:47;;;;;;;5.32;1.85;;;10.50;99.90;;;;;;4974512;28;20019;-90
2024/02/18 00:39:14;;;;;;;8.63;1.80;;;10.50;99.90;;;;;;4957257;28;20035;-89
2024/02/18 00:41:41;;;;;;;12.35;1.65;;;10.50;99.90;;;;;;4955351;28;20534;-90
2024/02/18 00:44:07;;;;;;;6.10;2.20;;;10.50;99.90;;;;;;4956053;28;20042;-89
2024/02/18 00:46:32;;;;;;;9.05;1.50;;;10.50;99.90;;;;;;4957060;28;20020;-89
2024/02/18 00:48:58;;;;;;;7.22;1.30;;;10.50;99.90;;;;;;4958339;28;20043;-90
2024/02/18 00:51:25;;;;;;;5.30;1.30;;;10.40;99.90;;;;;;4960499;28;20538;-90
2024/02/18 00:53:51;;;;;;;6.90;1.13;;;10.50;99.90;;;;;;4958640;28;20031;-90
2024/02/18 00:56:17;;;;;;;8.88;1.45;;;10.40;99.90;;;;;;4961625;28;20541;-89
2024/02/18 00:58:42;;;;;;;4.45;1.10;;;10.40;99.90;;;;;;4959622;28;20025;-90
2024/02/18 01:01:08;;;;;;;8.70;1.70;;;10.40;99.90;;;;;;4949938;29;20027;-90
2024/02/18 01:03:35;;;;;;;5.10;1.67;;;10.40;99.90;;;;;;4957640;28;20090;-90
2024/02/18 01:06:03;;;;;;;6.68;1.75;;;10.40;99.90;;;;;;4959983;28;20034;-89
2024/02/18 01:08:29;;;;;;;6.35;1.55;;;10.40;99.90;;;;;;4960146;28;20027;-89
2024/02/18 01:10:55;;;;;;;8.25;1.45;;;10.30;99.90;;;;;;4960727;28;20033;-89
2024/02/18 01:13:20;;;;;;;10.88;2.08;;;10.30;99.90;;;;;;4955406;29;20523;-89
2024/02/18 01:15:46;;;;;;;6.38;1.33;;;10.30;99.90;;;;;;4957985;28;20049;-90
2024/02/18 01:18:11;;;;;;;6.47;1.35;;;10.40;99.90;;;;;;4961920;28;20052;-89
2024/02/18 01:20:37;;;;;;;6.22;1.40;;;10.30;99.90;;;;;;4957507;28;20057;-90
2024/02/18 01:23:03;;;;;;;6.60;1.95;;;10.30;99.90;;;;;;4968438;28;20058;-90
2024/02/18 01:25:28;;;;;;;7.65;1.33;;;10.40;99.90;;;;;;4960499;28;20047;-89
2024/02/18 01:27:54;;;;;;;7.03;1.90;;;10.40;99.90;;;;;;4984355;28;20074;-89
2024/02/18 01:30:20;;;;;;;6.88;2.05;;;10.40;99.90;;;;;;4962462;28;20027;-90
2024/02/18 01:32:48;;;;;;;10.43;2.38;;;10.40;99.90;;;;;;4959427;28;20066;-90
2024/02/18 01:35:14;;;;;;;5.95;1.42;;;10.40;99.90;;;;;;4960775;28;20037;-90
2024/02/18 01:37:40;;;;;;;9.60;2.47;;;10.40;99.90;;;;;;4960975;28;20495;-89
2024/02/18 01:40:06;;;;;;;8.85;2.03;;;10.40;99.90;;;;;;4962179;28;20055;-90
2024/02/18 01:42:32;;;;;;;12.50;2.65;;;10.40;99.90;;;;;;4962574;28;20038;-89
2024/02/18 01:44:58;;;;;;;10.50;2.13;;;10.40;99.90;;;;;;4971040;28;20019;-90
2024/02/18 01:47:24;;;;;;;9.48;2.47;;;10.40;99.90;;;;;;4966495;28;20038;-90
2024/02/18 01:49:51;;;;;;;8.73;2.20;;;10.40;99.90;;;;;;4961391;28;20031;-90
2024/02/18 01:52:18;;;;;;;7.68;2.65;;;10.50;99.90;;;;;;4960951;28;20026;-90
2024/02/18 01:54:44;;;;;;;8.63;2.72;;;10.40;99.90;;;;;;4958628;29;20023;-90
2024/02/18 01:57:10;;;;;;;9.77;3.03;;;10.50;99.90;;;;;;4960744;28;20554;-90
2024/02/18 01:59:37;;;;;;;8.98;2.25;;;10.40;99.90;;;;;;4956376;28;20026;-90
2024/02/18 02:02:03;;;;;;;6.82;3.03;;;10.50;99.90;;;;;;4959477;28;20046;-89
2024/02/18 02:04:29;;;;;;;14.80;2.67;;;10.50;99.90;;;;;;4959074;28;20031;-90
2024/02/18 02:06:55;;;;;;;11.30;2.70;;;10.50;99.90;;;;;;4948371;28;20035;-90
2024/02/18 02:09:20;;;;;;;5.97;1.95;;;10.50;99.90;;;;;;4959675;28;20121;-90
2024/02/18 02:11:46;;;;;;;6.15;2.25;;;10.50;99.90;;;;;;4961220;28;20053;-90
2024/02/18 02:14:13;;;;;;;12.63;2.38;;;10.50;99.90;;;;;;4958728;28;20027;-90
2024/02/18 02:16:39;;;;;;;8.18;2.70;;;10.50;99.90;;;;;;4941687;28;20035;-89
2024/02/18 02:19:05;;;;;;;12.95;2.70;;;10.60;99.90;;;;;;4973209;28;20026;-90
2024/02/18 02:21:30;;;;;;;8.65;1.85;;;10.60;99.90;;;;;;4948130;28;20118;-91
2024/02/18 02:23:56;;;;;;;9.82;2.38;;;10.60;99.90;;;;;;4958403;28;20031;-90
2024/02/18 02:26:24;;;;;;;10.63;2.50;;;10.60;99.90;;;;;;4960777;28;20038;-89
2024/02/18 02:29:02;;;;;;;6.55;2.30;;;10.60;99.90;;;;;;4962559;28;20098;-90
2024/02/18 02:31:28;;;;;;;6.20;2.42;;;10.60;99.90;;;;;;4959685;28;20062;-90
2024/02/18 02:33:54;;;;;;;9.40;2.47;;;10.70;99.90;;;;;;4956766;28;20031;-90
2024/02/18 02:36:19;;;;;;;8.57;2.95;;;10.70;99.90;;;;;;4967337;28;20020;-89
2024/02/18 02:38:45;;;;;;;6.47;2.08;;;10.70;99.90;;;;;;4971330;28;20400;-90
2024/02/18 02:41:10;;;;;;;6.97;2.17;;;10.70;99.90;;;;;;4990005;28;20080;-89
2024/02/18 02:43:36;;;;;;;15.43;2.13;;;10.70;99.90;;;;;;4993825;28;20058;-89
2024/02/18 02:46:01;;;;;;;7.93;2.20;;;10.70;99.90;;;;;;4994630;28;20034;-89
2024/02/18 02:48:27;;;;;;;9.43;2.30;;;10.70;99.90;;;;;;4995941;28;20078;-89
2024/02/18 02:50:52;;;;;;;7.00;2.50;;;10.70;99.90;;;;;;4986785;28;20033;-90
2024/02/18 02:53:18;;;;;;;11.30;2.50;;;10.60;99.90;;;;;;4978227;28;20506;-90
2024/02/18 02:55:43;;;;;;;10.57;2.67;;;10.60;99.90;;;;;;4969992;28;20033;-89
2024/02/18 02:58:09;;;;;;;7.63;2.00;;;10.70;99.90;;;;;;4979448;28;20084;-90
2024/02/18 03:00:35;;;;;;;7.15;1.55;;;10.70;99.90;;;;;;4978025;28;20084;-90
2024/02/18 03:03:00;;;;;;;5.50;1.73;;;10.60;99.90;;;;;;4976163;28;20030;-89
2024/02/18 03:05:26;;;;;;;13.13;2.00;;;10.70;99.90;;;;;;4977131;28;20030;-90
2024/02/18 03:07:51;;;;;;;5.38;1.88;;;10.70;99.90;;;;;;4993318;28;20038;-90
2024/02/18 03:10:17;;;;;;;7.75;1.90;;;10.70;99.90;;;;;;4970936;28;20022;-90
2024/02/18 03:12:43;;;;;;;8.02;1.73;;;10.60;99.90;;;;;;4973992;28;20540;-90
2024/02/18 03:15:08;;;;;;;8.38;1.90;;;10.60;99.90;;;;;;4977914;28;20030;-89
2024/02/18 03:17:35;;;;;;;7.07;2.35;;;10.60;99.90;;;;;;4978513;28;20030;-90
2024/02/18 03:20:01;;;;;;;7.80;1.67;;;10.60;99.90;;;;;;4974294;28;20023;-89
2024/02/18 03:22:27;;;;;;;7.45;1.50;;;10.60;99.90;;;;;;4976357;28;20041;-89
2024/02/18 03:24:52;;;;;;;7.85;1.52;;;10.60;99.90;;;;;;4977226;28;20934;-89
2024/02/18 03:27:18;;;;;;;3.97;1.50;;;10.50;99.90;;;;;;4978433;28;20038;-89
2024/02/18 03:29:44;;;;;;;10.93;1.67;;;10.50;99.90;;;;;;4976635;28;20027;-90
2024/02/18 03:32:10;;;;;;;6.97;1.70;;;10.50;99.90;;;;;;4977390;28;20384;-89
2024/02/18 03:34:36;;;;;;;5.53;1.40;;;10.50;99.90;;;;;;4977753;28;20495;-89
2024/02/18 03:37:02;;;;;;;4.20;1.60;;;10.50;99.90;;;;;;4979299;28;20026;-89
2024/02/18 03:39:27;;;;;;;5.78;1.17;;;10.40;99.90;;;;;;4975622;28;20053;-89
2024/02/18 03:41:53;;;;;;;7.75;1.25;;;10.40;99.90;;;;;;4972014;28;20038;-89
2024/02/18 03:44:18;;;;;;;6.30;1.65;;;10.40;99.90;;;;;;4985194;28;20030;-89
2024/02/18 03:46:44;;;;;;;5.82;1.70;;;10.40;99.90;;;;;;4978545;28;20069;-89
2024/02/18 03:49:10;;;;;;;3.13;1.10;;;10.40;99.90;;;;;;4991911;28;20030;-90
2024/02/18 03:51:35;;;;;;;6.53;1.30;;;10.40;99.90;;;;;;4978169;28;20056;-90
2024/02/18 03:54:01;;;;;;;7.88;1.73;;;10.30;99.90;;;;;;4977805;28;20037;-90
2024/02/18 03:56:26;;;;;;;7.50;1.42;;;10.30;99.90;;;;;;4993584;28;20037;-89
2024/02/18 03:58:52;;;;;;;7.82;1.63;;;10.30;99.90;;;;;;4977534;28;20026;-90
2024/02/18 04:01:18;;;;;;;7.13;1.60;;;10.30;99.90;;;;;;4992050;28;20422;-89
2024/02/18 04:03:43;;;;;;;5.32;1.70;;;10.30;99.90;;;;;;4978171;28;20027;-89
2024/02/18 04:06:09;;;;;;;5.72;1.33;;;10.30;99.90;;;;;;4976590;28;20116;-89
2024/02/18 04:08:34;;;;;;;7.57;1.50;;;10.30;99.90;;;;;;4987761;28;20037;-90
2024/02/18 04:11:00;;;;;;;9.38;1.63;;;10.30;99.90;;;;;;4980675;28;20097;-90
2024/02/18 04:13:26;;;;;;;7.25;1.52;;;10.30;99.90;;;;;;4977829;28;20058;-90
2024/02/18 04:15:52;;;;;;;4.55;1.30;;;10.20;99.90;;;;;;4976787;28;20030;-90
2024/02/18 04:18:17;;;;;;;7.20;1.20;;;10.20;99.90;;;;;;4980647;28;20073;-90
2024/02/18 04:20:43;;;;;;;7.57;1.63;;;10.20;99.90;;;;;;4976590;28;20041;-90
2024/02/18 04:23:08;;;;;;;7.18;1.85;;;10.20;99.90;;;;;;4977363;28;20125;-90
2024/02/18 04:25:34;;;;;;;6.82;1.90;;;10.20;99.90;;;;;;4975386;28;20026;-90
2024/02/18 04:28:00;;;;;;;5.72;1.45;;;10.20;99.90;;;;;;4977246;28;20030;-90
2024/02/18 04:30:26;;;;;;;13.38;2.45;;;10.10;99.90;;;;;;4990998;28;20023;-91
2024/02/18 04:32:51;;;;;;;9.27;2.00;;;10.10;99.90;;;;;;4977827;28;20030;-91
2024/02/18 04:35:17;;;;;;;5.93;1.20;;;10.00;99.90;;;;;;4978167;28;20482;-91
2024/02/18 04:37:42;;;;;;;9.95;2.38;;;10.00;99.90;;;;;;4978331;28;20035;-92
2024/02/18 04:40:08;;;;;;;6.43;1.98;;;10.00;99.90;;;;;;4976969;28;20048;-91
2024/02/18 04:42:34;;;;;;;6.07;1.88;;;10.00;99.90;;;;;;4994466;28;20069;-91
2024/02/18 04:45:00;;;;;;;9.13;1.52;;;10.00;99.90;;;;;;5010855;28;20030;-92
2024/02/18 04:47:25;;;;;;;8.23;1.60;;;10.00;99.90;;;;;;5010934;28;20049;-93
2024/02/18 04:49:51;;;;;;;7.13;1.88;;;10.00;99.90;;;;;;4995014;28;20104;-92
2024/02/18 04:52:16;;;;;;;10.43;1.98;;;10.00;99.90;;;;;;4994297;28;20053;-92
2024/02/18 04:54:42;;;;;;;7.30;2.03;;;9.90;99.90;;;;;;4994242;28;20027;-92
2024/02/18 04:57:08;;;;;;;7.47;2.05;;;9.90;99.90;;;;;;5011516;28;20019;-93
2024/02/18 04:59:36;;;;;;;7.80;2.08;;;9.90;99.90;;;;;;5011583;28;20034;-92
2024/02/18 05:02:02;;;;;;;8.30;2.00;;;9.90;99.90;;;;;;4992464;28;20042;-91
2024/02/18 05:04:31;;;;;;;10.75;2.10;;;9.80;99.90;;;;;;4993902;28;20026;-92
2024/02/18 05:06:57;;;;;;;5.65;1.90;;;9.80;99.90;;;;;;4994533;28;20103;-92
2024/02/18 05:09:22;;;;;;;8.65;2.28;;;9.80;99.90;;;;;;4993699;28;20030;-92
2024/02/18 05:11:48;;;;;;;7.50;1.70;;;9.80;99.90;;;;;;4993089;28;21632;-93
2024/02/18 05:14:13;;;;;;;6.88;2.30;;;9.80;99.90;;;;;;5006865;28;20037;-92
2024/02/18 05:16:39;;;;;;;9.25;2.30;;;9.70;99.90;;;;;;4992328;28;20030;-92
2024/02/18 05:19:04;;;;;;;4.28;1.92;;;9.70;99.90;;;;;;4992923;28;20027;-92
2024/02/18 05:21:30;;;;;;;8.02;2.10;;;9.70;99.90;;;;;;4993989;28;20034;-92
2024/02/18 05:23:57;;;;;;;7.88;1.83;;;9.70;99.90;;;;;;4993538;28;20030;-92
2024/02/18 05:26:25;;;;;;;8.38;2.22;;;9.70;99.90;;;;;;4992355;28;20026;-93
2024/02/18 05:28:51;;;;;;;13.18;2.53;;;9.70;99.90;;;;;;4994000;28;20030;-92
2024/02/18 05:31:24;;;;;;;6.07;1.50;;;9.60;99.90;;;;;;4995408;28;20034;-92
2024/02/18 05:33:50;;;;;;;6.75;1.80;;;9.70;99.90;;;;;;5019998;28;20030;-92
2024/02/18 05:36:17;;;;;;;11.00;2.35;;;9.70;99.90;;;;;;5016463;28;20030;-91
2024/02/18 05:38:43;;;;;;;7.97;2.30;;;9.60;99.90;;;;;;4999123;28;20111;-93
2024/02/18 05:41:09;;;;;;;5.68;2.10;;;9.70;99.90;;;;;;4972657;28;20054;-93
2024/02/18 05:43:35;;;;;;;9.57;2.33;;;9.70;99.90;;;;;;4952500;28;20023;-93
2024/02/18 05:46:00;;;;;;;11.80;2.15;;;9.60;99.90;;;;;;4961071;28;20081;-94
2024/02/18 05:48:26;;;;;;;6.80;1.88;;;9.70;99.90;;;;;;4962707;28;20031;-94
2024/02/18 05:50:51;;;;;;;7.65;1.50;;;9.70;99.90;;;;;;4962220;28;20098;-93
2024/02/18 05:53:17;;;;;;;7.57;1.92;;;9.70;99.90;;;;;;4961317;28;20030;-93
2024/02/18 05:55:43;;;;;;;7.25;1.85;;;9.70;99.90;;;;;;4981089;28;20066;-94
2024/02/18 05:58:12;;;;;;;9.48;2.80;;;9.60;99.90;;;;;;4961935;28;20034;-93
2024/02/18 06:00:37;;;;;;;10.95;2.13;;;9.70;99.90;;;;;;4962415;28;20030;-94
2024/02/18 06:03:03;;;;;;;8.85;1.70;;;9.60;99.90;;;;;;4961600;28;20030;-93
2024/02/18 06:05:29;;;;;;;7.45;1.83;;;9.60;99.90;;;;;;4973888;28;20372;-94
2024/02/18 06:07:54;;;;;;;7.30;1.88;;;9.60;99.90;;;;;;4962343;28;20047;-95
2024/02/18 06:10:20;;;;;;;8.32;2.13;;;9.60;99.90;;;;;;4960197;28;20308;-94
2024/02/18 06:12:45;;;;;;;6.78;1.80;;;9.60;99.90;;;;;;4952908;28;20041;-94
2024/02/18 06:15:12;;;;;;;6.18;1.80;;;9.60;99.90;;;;;;4957240;28;20031;-94
2024/02/18 06:17:38;;;;;;;9.95;2.13;;;9.60;99.90;;;;;;4961942;28;20023;-94
2024/02/18 06:20:04;;;;;;;11.93;2.17;;;9.60;99.90;;;;;;4959758;28;20078;-94
2024/02/18 06:22:30;;;;;;;5.25;1.50;;;9.60;99.90;;;;;;4959565;28;20384;-95
2024/02/18 06:24:55;;;;;;;9.02;2.03;;;9.60;99.90;;;;;;4962731;28;20034;-95
2024/02/18 06:27:21;;;;;;;10.25;1.38;;;9.60;99.90;;;;;;4968020;28;20035;-93
2024/02/18 06:29:46;;;;;;;8.25;2.70;;;9.60;99.90;;;;;;4978035;28;20086;-96
2024/02/18 06:32:12;;;;;;;7.95;2.28;;;9.60;99.90;;;;;;4963377;28;20031;-94
2024/02/18 06:34:38;;;;;;;7.97;2.60;;;9.50;99.90;;;;;;4960543;28;20086;-95
2024/02/18 06:37:04;;;;;;;6.65;1.58;;;9.50;99.90;;;;;;4953490;29;20032;-95
2024/02/18 06:39:30;;;;;;;8.07;2.00;;;9.50;99.90;;;;;;4958370;28;20030;-94
2024/02/18 06:41:56;;;;;;;5.57;2.10;;;9.50;99.90;;;;;;4976225;28;20069;-95
2024/02/18 06:44:22;;;;;;;12.40;2.03;;;9.50;99.90;;;;;;4975673;28;20046;-94
2024/02/18 06:46:50;;;;;;;7.63;1.52;;;9.50;99.90;;;;;;4970511;28;20084;-94
2024/02/18 06:49:16;;;;;;;11.13;1.42;;;9.50;99.90;;;;;;4974304;28;20023;-94
2024/02/18 06:51:42;;;;;;;5.28;2.08;;;9.50;99.90;;;;;;4970924;28;20088;-94
2024/02/18 06:54:07;;;;;;;7.05;2.00;;;9.50;99.90;;;;;;4977826;28;20026;-94
2024/02/18 06:56:33;;;;;;;9.48;1.85;;;9.40;99.90;;;;;;4974157;28;20107;-94
2024/02/18 06:58:58;;;;;;;7.38;1.58;;;9.40;99.90;;;;;;4977851;28;20034;-94
2024/02/18 07:01:24;;;;;;;7.07;1.65;;;9.40;99.90;;;;;;4977658;28;20104;-93
2024/02/18 07:03:50;;;;;;;14.05;1.88;;;9.40;99.90;;;;;;4976310;28;20182;-95
2024/02/18 07:06:17;;;;;;;11.45;1.77;;;9.30;99.90;;;;;;4970373;28;20125;-93
2024/02/18 07:08:44;;;;;;;6.75;1.65;;;9.40;99.90;;;;;;4977965;28;20034;-93
2024/02/18 07:11:10;;;;;;;6.57;1.60;;;9.30;99.90;;;;;;4973774;28;20037;-95
2024/02/18 07:13:36;;;;;;;12.13;2.03;;;9.30;99.90;;;;;;4976210;28;20027;-94
2024/02/18 07:16:01;;;;;;;6.15;1.48;;;9.30;99.90;;;;;;4977483;28;20030;-94
2024/02/18 07:18:28;;;;;;;7.13;1.92;;;9.30;99.90;;;;;;4977432;28;20050;-94
2024/02/18 07:20:53;;;;;;;6.13;1.40;;;9.30;99.90;;;;;;4976954;28;20030;-93
2024/02/18 07:23:19;;;;;;;9.20;1.98;;;9.30;99.90;;;;;;4977948;28;20023;-93
2024/02/18 07:25:45;;;;;;;10.48;1.70;;;9.30;99.90;;;;;;4974142;28;20054;-94
2024/02/18 07:28:11;;;;;;;6.38;1.35;;;9.30;99.90;;;;;;4973788;28;20053;-92
2024/02/18 07:30:36;;;;;;;4.05;1.40;;;9.30;99.90;;;;;;4972513;28;20023;-94
2024/02/18 07:33:02;;;;;;;8.27;1.80;;;9.20;99.90;;;;;;4977418;28;20040;-95
2024/02/18 07:35:28;;;;;;;5.93;1.58;;;9.30;99.90;;;;;;4986829;28;20057;-96
2024/02/18 07:37:55;;;;;;;11.88;1.70;;;9.30;99.90;;;;;;4974638;28;20026;-95
2024/02/18 07:40:20;;;;;;;10.55;1.88;;;9.30;99.90;;;;;;4981359;28;20447;-95
2024/02/18 07:42:46;;;;;;;8.00;1.50;;;9.30;99.90;;;;;;4978275;28;20027;-95
2024/02/18 07:45:12;;;;;;;7.93;1.67;;;9.30;99.90;;;;;;4979907;28;20100;-95
2024/02/18 07:47:37;;;;;;;7.63;1.63;;;9.30;99.90;;;;;;4985132;28;20034;-93
2024/02/18 07:50:03;;;;;;;6.57;1.90;;;9.30;99.90;;;;;;4977955;28;20581;-93
2024/02/18 07:52:29;;;;;;;10.48;1.80;;;9.30;99.90;;;;;;4976022;28;20068;-93
2024/02/18 07:54:55;;;;;;;8.70;2.00;;;9.30;99.90;;;;;;4978736;28;20030;-93
2024/02/18 07:57:20;;;;;;;9.93;2.20;;;9.30;99.90;;;;;;4977127;28;20036;-94
2024/02/18 07:59:47;;;;;;;6.63;1.70;;;9.30;99.90;;;;;;4978542;28;20026;-92
2024/02/18 08:02:12;;;;;;;7.18;1.75;;;9.30;99.90;;;;;;4974529;28;20035;-94
2024/02/18 08:04:38;;;;;;;11.30;2.03;;;9.40;99.90;;;;;;4979663;28;20033;-94
2024/02/18 08:07:04;;;;;;;5.82;1.80;;;9.30;99.90;;;;;;4979150;28;20030;-93
2024/02/18 08:09:30;;;;;;;6.90;1.70;;;9.30;99.90;;;;;;4978532;28;20128;-93
2024/02/18 08:11:55;;;;;;;7.50;2.58;;;9.30;99.90;;;;;;4970522;28;20357;-93
2024/02/18 08:14:21;;;;;;;8.57;2.55;;;9.30;99.90;;;;;;4978535;28;20041;-95
2024/02/18 08:16:46;;;;;;;10.00;1.92;;;9.40;99.90;;;;;;4975452;28;20031;-91
2024/02/18 08:19:12;;;;;;;7.28;2.03;;;9.30;99.90;;;;;;4979341;28;20064;-91
2024/02/18 08:21:37;;;;;;;8.32;1.83;;;9.30;99.90;;;;;;4979701;28;20030;-92
2024/02/18 08:24:03;;;;;;;5.65;1.90;;;9.30;99.90;;;;;;4977271;28;20031;-93
2024/02/18 08:26:32;;;;;;;7.63;2.03;;;9.30;99.90;;;;;;4975577;28;20036;-93
2024/02/18 08:28:57;;;;;;;9.05;2.17;;;9.30;99.90;;;;;;4976995;28;20027;-93
2024/02/18 08:31:23;;;;;;;7.38;2.55;;;9.30;99.90;;;;;;4979126;28;20030;-92
2024/02/18 08:33:49;;;;;;;11.10;3.33;;;9.30;99.90;;;;;;4979307;28;20116;-91
2024/02/18 08:36:15;;;;;;;11.05;2.00;;;9.20;99.90;;;;;;4978855;28;20037;-94
2024/02/18 08:38:42;;;;;;;7.35;3.08;;;9.20;99.90;;;;;;4964516;28;20501;-93
2024/02/18 08:41:08;;;;;;;6.55;2.70;;;9.20;99.90;;;;;;4988662;28;20057;-93
2024/02/18 08:43:42;;;;;;;9.57;2.60;;;9.20;99.90;;;;;;5012315;28;20027;-93
2024/02/18 08:46:08;;;;;;;8.23;2.40;;;9.20;99.90;;;;;;5028812;28;20077;-91
2024/02/18 08:48:36;;;;;;;8.77;2.80;;;9.20;99.90;;;;;;5031865;28;20033;-93
2024/02/18 08:51:03;;;;;;;6.75;2.47;;;9.20;99.90;;;;;;5006151;28;20041;-92
2024/02/18 08:53:28;;;;;;;8.43;2.58;;;9.10;99.90;;;;;;5006017;28;20134;-93
2024/02/18 08:55:54;;;;;;;11.50;3.60;;;9.10;99.90;;;;;;5032075;28;20025;-92
2024/02/18 08:58:21;;;;;;;7.43;3.05;;;9.10;99.90;;;;;;4996465;28;20038;-95
2024/02/18 09:00:48;;;;;;;5.18;2.50;;;9.00;99.90;;;;;;4977567;28;20085;-94
2024/02/18 09:03:14;;;;;;;8.55;2.92;;;9.00;99.90;;;;;;5003936;28;20070;-92
2024/02/18 09:05:40;;;;;;;7.22;2.33;;;9.00;99.90;;;;;;4996035;28;20475;-94
2024/02/18 09:08:08;;;;;;;11.60;3.17;;;9.00;99.90;;;;;;4987863;28;20445;-91
2024/02/18 09:10:34;;;;;;;13.10;2.92;;;9.00;99.90;;;;;;5022900;28;20026;-92
2024/02/18 09:13:01;;;;;;;10.10;3.50;;;8.90;99.90;;;;;;5009322;28;20485;-92
2024/02/18 09:15:30;;;;;;;6.45;2.63;;;9.00;99.90;;;;;;4995501;28;20030;-92
2024/02/18 09:17:56;;;;;;;12.95;3.17;;;9.00;99.90;;;;;;4997830;28;20037;-93
2024/02/18 09:20:23;;;;;;;8.90;3.15;;;8.90;99.90;;;;;;4998034;28;20022;-92
2024/02/18 09:22:49;;;;;;;8.30;2.55;;;9.00;99.90;;;;;;4995905;28;20034;-92
2024/02/18 09:25:15;;;;;;;8.55;2.47;;;9.00;99.90;;;;;;5002989;28;20026;-92
2024/02/18 09:27:40;;;;;;;8.25;2.60;;;9.00;99.90;;;;;;5004772;28;20046;-92
2024/02/18 09:30:06;;;;;;;12.70;2.83;;;8.90;99.90;;;;;;5026507;28;20099;-92
2024/02/18 09:32:32;;;;;;;10.57;2.42;;;9.00;99.90;;;;;;5033743;28;20125;-93
2024/02/18 09:34:58;;;;;;;8.48;2.55;;;9.00;99.90;;;;;;5012985;28;20084;-93
2024/02/18 09:37:24;;;;;;;7.75;2.58;;;9.00;99.90;;;;;;4992960;28;20118;-92
2024/02/18 09:39:50;;;;;;;6.28;2.35;;;9.00;99.90;;;;;;4997897;28;20712;-93
2024/02/18 09:42:16;;;;;;;11.30;2.25;;;9.00;99.90;;;;;;4976627;28;20498;-94
2024/02/18 09:44:45;;;;;;;8.15;2.03;;;9.00;99.90;;;;;;4976441;28;20048;-91
2024/02/18 09:47:14;;;;;;;6.70;2.50;;;8.90;99.90;;;;;;4979156;28;20048;-92
2024/02/18 09:49:40;;;;;;;8.80;1.83;;;8.90;99.90;;;;;;4975061;28;20032;-92
2024/02/18 09:52:06;;;;;;;9.88;2.42;;;8.90;99.90;;;;;;4982211;28;20120;-93
2024/02/18 09:54:34;;;;;;;7.95;2.47;;;9.00;99.90;;;;;;4978254;28;20085;-92
2024/02/18 09:57:00;;;;;;;8.63;2.33;;;9.00;99.90;;;;;;4976416;28;20030;-93
2024/02/18 09:59:27;;;;;;;6.75;2.70;;;9.00;99.90;;;;;;4980710;28;20026;-90
2024/02/18 10:01:57;;;;;;;10.65;3.42;;;9.00;99.90;;;;;;4979743;28;20022;-92
2024/02/18 10:04:25;;;;;;;9.98;2.60;;;9.00;99.90;;;;;;4971781;28;20027;-91
2024/02/18 10:06:52;;;;;;;9.27;2.33;;;9.00;99.90;;;;;;4975969;28;20054;-92
2024/02/18 10:09:18;;;;;;;6.30;1.92;;;9.10;99.90;;;;;;4997632;28;20030;-90
2024/02/18 10:11:44;;;;;;;6.32;1.90;;;9.10;99.90;;;;;;4982146;28;20117;-92
2024/02/18 10:14:09;;;;;;;8.30;1.70;;;9.10;99.90;;;;;;4976563;28;20022;-90
2024/02/18 10:16:38;;;;;;;6.22;1.90;;;9.10;99.90;;;;;;4980358;28;20124;-91
2024/02/18 10:19:07;;;;;;;5.95;1.88;;;9.10;99.90;;;;;;4980138;28;20030;-90
2024/02/18 10:21:32;;;;;;;8.95;1.77;;;9.10;99.90;;;;;;4980052;28;20093;-90
2024/02/18 10:23:59;;;;;;;5.43;1.05;;;9.20;99.90;;;;;;4980027;28;20427;-90
2024/02/18 10:26:25;;;;;;;4.97;1.70;;;9.20;99.90;;;;;;4977601;28;20022;-91
2024/02/18 10:28:52;;;;;;;5.63;1.45;;;9.20;99.90;;;;;;4978486;28;20035;-91
2024/02/18 10:31:18;;;;;;;5.40;1.50;;;9.20;99.90;;;;;;4992577;28;20032;-91
2024/02/18 10:33:46;;;;;;;8.60;1.85;;;9.30;99.90;;;;;;4988448;28;20030;-93
2024/02/18 10:36:15;;;;;;;6.20;1.60;;;9.20;99.90;;;;;;4983517;28;20065;-90
2024/02/18 10:38:46;;;;;;;10.65;2.33;;;9.20;99.90;;;;;;4964556;28;20043;-90
2024/02/18 10:41:21;;;;;;;7.93;1.10;;;9.20;99.90;;;;;;4990456;28;20051;-90
2024/02/18 10:43:50;;;;;;;5.68;1.15;;;9.20;99.90;;;;;;5022872;28;20034;-90
2024/02/18 10:46:25;;;;;;;6.15;1.45;;;9.20;99.90;;;;;;4997257;28;20398;-91
2024/02/18 10:48:59;;;;;;;6.30;0.90;;;9.20;99.90;;;;;;4995806;28;20054;-91
2024/02/18 10:51:49;;;;;;;3.85;1.00;;;9.10;99.90;;;;;;4996412;28;20050;-91
2024/02/18 10:54:39;;;;;;;5.30;0.98;;;9.10;99.90;;;;;;4975444;28;20094;-90
2024/02/18 10:57:06;;;;;;;6.03;0.95;;;9.20;99.90;;;;;;4990767;28;20339;-90
2024/02/18 10:59:52;;;;;;;4.70;0.93;;;9.10;99.90;;;;;;5010754;28;20479;-90
2024/02/18 11:02:30;;;;;;;5.15;0.95;;;9.20;99.90;;;;;;4983467;28;20120;-91
2024/02/18 11:04:56;;;;;;;3.00;0.82;;;9.10;99.90;;;;;;4986210;28;20026;-90
2024/02/18 11:07:26;;;;;;;2.55;0.70;;;9.10;99.90;;;;;;4994454;28;20038;-88
2024/02/18 11:09:55;;;;;;;5.03;1.00;;;9.20;99.90;;;;;;4996199;28;20098;-90
2024/02/18 11:12:21;;;;;;;3.67;1.27;;;9.20;99.90;;;;;;4993412;28;20022;-90
2024/02/18 11:14:48;;;;;;;5.82;0.93;;;9.20;99.90;;;;;;4996003;28;20026;-89
2024/02/18 11:17:15;;;;;;;3.85;0.80;;;9.20;99.90;;;;;;4991908;28;20018;-90
2024/02/18 11:19:41;;;;;;;6.38;1.10;;;9.10;99.90;;;;;;4994336;28;20049;-88
2024/02/18 11:22:07;;;;;;;5.20;0.98;;;9.20;99.90;;;;;;4995019;28;20027;-90
2024/02/18 11:24:33;;;;;;;6.25;0.90;;;9.20;99.90;;;;;;4991994;28;20398;-89
2024/02/18 11:26:58;;;;;;;5.10;0.88;;;9.20;99.90;;;;;;4993790;28;20042;-90
2024/02/18 11:29:28;;;;;;;7.78;1.40;;;9.20;99.90;;;;;;5001267;28;20082;-89
2024/02/18 11:31:53;;;;;;;4.18;0.77;;;9.20;99.90;;;;;;4999225;28;20026;-89
2024/02/18 11:34:19;;;;;;;6.20;1.20;;;9.20;99.90;;;;;;4996843;28;20081;-89
2024/02/18 11:36:45;;;;;;;8.52;1.02;;;9.20;99.90;;;;;;4997067;28;20026;-89
2024/02/18 11:39:11;;;;;;;5.75;1.60;;;9.20;99.90;;;;;;4996871;28;20088;-92
2024/02/18 11:41:38;;;;;;;3.15;0.70;;;9.20;99.90;;;;;;4987643;28;20133;-89
2024/02/18 11:44:14;;;;;;;6.43;0.82;;;9.10;99.90;;;;;;4981361;28;20027;-91
2024/02/18 11:46:44;;;;;;;7.00;1.25;;;9.10;99.90;;;;;;4995248;28;20026;-90
2024/02/18 11:49:13;;;;;;;2.80;1.20;;;9.10;99.90;;;;;;4993803;28;20027;-90
2024/02/18 11:51:40;;;;;;;5.22;1.20;;;9.10;99.90;;;;;;4991823;28;20117;-90
2024/02/18 11:54:05;;;;;;;7.30;1.27;;;9.10;99.90;;;;;;4996402;28;20498;-89
2024/02/18 11:56:31;;;;;;;4.55;0.93;;;9.10;99.90;;;;;;4998337;28;20018;-90
2024/02/18 11:58:57;;;;;;;3.67;0.80;;;9.10;99.90;;;;;;4988979;28;20101;-90
2024/02/18 12:01:26;;;;;;;6.82;0.93;;;9.10;99.90;;;;;;4992487;28;20034;-89
2024/02/18 12:03:54;;;;;;;5.53;1.00;;;9.10;99.90;;;;;;4992166;28;20038;-90
2024/02/18 12:06:21;;;;;;;8.07;1.00;;;9.10;99.90;;;;;;4994641;28;20065;-90
2024/02/18 12:08:48;;;;;;;4.38;1.08;;;9.10;99.90;;;;;;5012241;28;20445;-89
2024/02/18 12:11:15;;;;;;;6.95;1.27;;;9.10;99.90;;;;;;5016790;28;20053;-90
2024/02/18 12:13:41;;;;;;;6.20;0.98;;;9.10;99.90;;;;;;4998869;28;20096;-89
2024/02/18 12:16:08;;;;;;;5.82;1.02;;;9.10;99.90;;;;;;4992226;28;20065;-90
2024/02/18 12:18:33;;;;;;;3.95;0.90;;;9.10;99.90;;;;;;4989696;28;20034;-90
2024/02/18 12:21:00;;;;;;;5.88;1.05;;;9.20;99.90;;;;;;4998674;28;20037;-90
2024/02/18 12:23:25;;;;;;;5.75;1.65;;;9.10;99.90;;;;;;5009180;28;20064;-90
2024/02/18 12:25:52;;;;;;;4.72;1.10;;;9.10;99.90;;;;;;4995744;28;20486;-89
2024/02/18 12:28:19;;;;;;;9.23;1.30;;;9.10;99.90;;;;;;5009819;28;20046;-90
2024/02/18 12:30:46;;;;;;;6.65;1.42;;;9.10;99.90;;;;;;4993293;28;20027;-90
2024/02/18 12:33:13;;;;;;;5.28;1.40;;;9.10;99.90;;;;;;4989013;28;20026;-89
2024/02/18 12:35:39;;;;;;;8.88;1.10;;;9.20;99.90;;;;;;4992258;28;20022;-89
2024/02/18 12:38:05;;;;;;;4.70;1.10;;;9.10;99.90;;;;;;5010799;28;20034;-89
2024/02/18 12:40:32;;;;;;;3.45;0.90;;;9.20;99.90;;;;;;4994781;28;20133;-90
2024/02/18 12:42:58;;;;;;;5.60;1.17;;;9.20;99.90;;;;;;4995287;28;20113;-89
2024/02/18 12:45:28;;;;;;;5.40;0.98;;;9.20;99.90;;;;;;5004050;28;20049;-89